Terminal Aerodrome Forecast
Issued by NWS

Home | Current Version | Previous Version | Text Only | Print | Product List | Glossary On
Versions: 1 2 3 4 5 6 7 8 9 10 11 12 13 14 15 16 17 18 19 20 21 22 23 24 25 26 27 28 29 30 31 32 33 34 35 36 37 38
000
FTUS43 KGRB 172340
TAFRHI
TAF
KRHI 172340Z 1800/1824 19005KT 4SM -DZ BR OVC004
     FM180200 28003KT 3SM -DZSN BR OVC004
     FM180500 35004KT 5SM -FZDZSN BR OVC006
     FM181100 35007KT 6SM -FZDZSN BR OVC008
     FM181400 34009KT P6SM OVC012
     FM181800 31008KT P6SM BKN020=

USA.gov is the U.S. government's official web portal to all federal, state and local government web resources and services.